EWG52V EDDL-LEPA
Flight info
| Callsign | EWG52V |
|---|---|
| Flight time | 2h 9m |
| Altitude | 36000 |
| Route | MODRU7Z/05R MODRU Z283 LNO/N0456F350 Z283 RITAX UT27 ROUSY DCT GTQ DCT POGOL DCT LASAT DCT MOROK DCT GILIR DCT GEVEA DCT INCUS DCT BALSI DCT RETNO DCT TUPOX DCT MTG DCT DIVKO DCT VATIR N852 VERSO L129 LUNIK LUNIK4M |
| Aircraft | A320/M-SDE3FGHIRWY/LB1 |
Departure
| Time | 2026-05-06 13:49 |
|---|---|
| Airport | Düsseldorf Airport (EDDL) |
Arrival
| Time | 2026-05-06 15:59 |
|---|---|
| Airport | Palma de Mallorca Airport (LEPA) |
| Time | Latitude | Longitude | Altitude | Speed | Heading |
|---|---|---|---|---|---|
| 2026-05-06 13:29 | 51.28106 | 6.76715 | 154 ft | 0 kts | 276° |
| 2026-05-06 13:41 | 51.28106 | 6.76720 | 154 ft | 2 kts | 276° |
| 2026-05-06 13:41 | 51.28105 | 6.76743 | 154 ft | 2 kts | 276° |
| 2026-05-06 13:42 | 51.28103 | 6.76766 | 154 ft | 2 kts | 276° |
| 2026-05-06 13:42 | 51.28101 | 6.76789 | 154 ft | 2 kts | 308° |
| 2026-05-06 13:42 | 51.28088 | 6.76801 | 154 ft | 2 kts | 354° |
| 2026-05-06 13:42 | 51.28080 | 6.76801 | 154 ft | 1 kts | 20° |
| 2026-05-06 13:43 | 51.28074 | 6.76797 | 154 ft | 0 kts | 19° |
| 2026-05-06 13:45 | 51.28135 | 6.76824 | 154 ft | 13 kts | 13° |
| 2026-05-06 13:45 | 51.28234 | 6.76849 | 154 ft | 11 kts | 7° |
| 2026-05-06 13:46 | 51.28303 | 6.76812 | 154 ft | 11 kts | 321° |
| 2026-05-06 13:46 | 51.28368 | 6.76729 | 154 ft | 12 kts | 323° |
| 2026-05-06 13:46 | 51.28407 | 6.76619 | 154 ft | 12 kts | 249° |
| 2026-05-06 13:46 | 51.28357 | 6.76498 | 154 ft | 14 kts | 233° |
| 2026-05-06 13:47 | 51.28285 | 6.76346 | 154 ft | 19 kts | 233° |
| 2026-05-06 13:47 | 51.28199 | 6.76165 | 154 ft | 20 kts | 233° |
| 2026-05-06 13:47 | 51.28111 | 6.75982 | 154 ft | 20 kts | 233° |
| 2026-05-06 13:47 | 51.28027 | 6.75805 | 154 ft | 20 kts | 233° |
| 2026-05-06 13:48 | 51.27942 | 6.75627 | 154 ft | 19 kts | 232° |
| 2026-05-06 13:48 | 51.27863 | 6.75464 | 154 ft | 14 kts | 232° |
| 2026-05-06 13:48 | 51.27867 | 6.75332 | 154 ft | 14 kts | 327° |
| 2026-05-06 13:48 | 51.27961 | 6.75273 | 154 ft | 16 kts | 3° |
| 2026-05-06 13:49 | 51.28098 | 6.75485 | 154 ft | 55 kts | 52° |
| 2026-05-06 13:49 | 51.28473 | 6.76261 | 154 ft | 118 kts | 54° |
| 2026-05-06 13:49 | 51.29082 | 6.77551 | 174 ft | 167 kts | 53° |
| 2026-05-06 13:49 | 51.29755 | 6.79030 | 796 ft | 162 kts | 51° |
| 2026-05-06 13:50 | 51.30415 | 6.80426 | 1512 ft | 158 kts | 49° |
| 2026-05-06 13:50 | 51.31065 | 6.81792 | 2164 ft | 156 kts | 51° |
| 2026-05-06 13:50 | 51.31706 | 6.83211 | 2615 ft | 164 kts | 51° |
| 2026-05-06 13:50 | 51.32406 | 6.84710 | 3002 ft | 177 kts | 50° |
| 2026-05-06 13:51 | 51.33201 | 6.86336 | 3371 ft | 194 kts | 51° |
| 2026-05-06 13:51 | 51.34037 | 6.88127 | 3753 ft | 210 kts | 52° |
| 2026-05-06 13:51 | 51.35078 | 6.89945 | 4051 ft | 232 kts | 32° |
| 2026-05-06 13:51 | 51.36606 | 6.90893 | 4502 ft | 249 kts | 8° |
| 2026-05-06 13:52 | 51.38353 | 6.91292 | 5224 ft | 256 kts | 9° |
| 2026-05-06 13:52 | 51.40095 | 6.91757 | 6031 ft | 259 kts | 9° |
| 2026-05-06 13:52 | 51.41881 | 6.92247 | 6838 ft | 263 kts | 9° |
| 2026-05-06 13:52 | 51.43679 | 6.92736 | 7636 ft | 266 kts | 8° |
| 2026-05-06 13:53 | 51.45483 | 6.93222 | 8405 ft | 270 kts | 8° |
| 2026-05-06 13:53 | 51.47342 | 6.93470 | 9177 ft | 272 kts | 352° |
| 2026-05-06 13:53 | 51.49127 | 6.92516 | 9905 ft | 275 kts | 328° |
| 2026-05-06 13:53 | 51.50518 | 6.90449 | 10517 ft | 284 kts | 305° |
| 2026-05-06 13:54 | 51.51384 | 6.87482 | 10873 ft | 303 kts | 291° |
| 2026-05-06 13:54 | 51.52139 | 6.84245 | 11209 ft | 320 kts | 292° |
| 2026-05-06 13:54 | 51.52950 | 6.80823 | 11521 ft | 338 kts | 292° |
| 2026-05-06 13:54 | 51.53810 | 6.77220 | 11816 ft | 354 kts | 292° |
| 2026-05-06 13:55 | 51.54706 | 6.73459 | 12192 ft | 367 kts | 292° |
| 2026-05-06 13:55 | 51.55447 | 6.69515 | 12778 ft | 374 kts | 279° |
| 2026-05-06 13:55 | 51.55368 | 6.65371 | 13434 ft | 380 kts | 260° |
| 2026-05-06 13:55 | 51.54449 | 6.61398 | 14067 ft | 385 kts | 244° |
| 2026-05-06 13:56 | 51.53200 | 6.57598 | 14745 ft | 387 kts | 244° |
| 2026-05-06 13:56 | 51.51936 | 6.53746 | 15335 ft | 391 kts | 244° |
| 2026-05-06 13:56 | 51.50675 | 6.49883 | 15903 ft | 394 kts | 244° |
| 2026-05-06 13:56 | 51.49417 | 6.46007 | 16512 ft | 396 kts | 244° |
| 2026-05-06 13:57 | 51.48156 | 6.42119 | 17080 ft | 398 kts | 244° |
| 2026-05-06 13:57 | 51.46762 | 6.38231 | 17634 ft | 402 kts | 234° |
| 2026-05-06 13:57 | 51.44826 | 6.35034 | 18156 ft | 407 kts | 219° |
| 2026-05-06 13:57 | 51.42370 | 6.32744 | 18711 ft | 411 kts | 203° |
| 2026-05-06 13:58 | 51.39614 | 6.31096 | 19272 ft | 414 kts | 200° |
| 2026-05-06 13:58 | 51.36889 | 6.29531 | 19749 ft | 418 kts | 200° |
| 2026-05-06 13:58 | 51.34148 | 6.27945 | 20235 ft | 421 kts | 200° |
| 2026-05-06 13:58 | 51.31405 | 6.26343 | 20722 ft | 424 kts | 200° |
| 2026-05-06 13:59 | 51.28640 | 6.24726 | 21189 ft | 427 kts | 200° |
| 2026-05-06 13:59 | 51.25832 | 6.23082 | 21656 ft | 430 kts | 200° |
| 2026-05-06 13:59 | 51.23043 | 6.21448 | 22119 ft | 432 kts | 200° |
| 2026-05-06 13:59 | 51.20197 | 6.19780 | 22564 ft | 435 kts | 200° |
| 2026-05-06 14:00 | 51.17388 | 6.18137 | 22996 ft | 437 kts | 200° |
| 2026-05-06 14:00 | 51.14511 | 6.16458 | 23430 ft | 439 kts | 200° |
| 2026-05-06 14:00 | 51.11647 | 6.14791 | 23821 ft | 442 kts | 200° |
| 2026-05-06 14:00 | 51.08680 | 6.13066 | 24205 ft | 446 kts | 200° |
| 2026-05-06 14:01 | 51.05751 | 6.11354 | 24574 ft | 449 kts | 201° |
| 2026-05-06 14:01 | 51.02851 | 6.09424 | 24959 ft | 451 kts | 204° |
| 2026-05-06 14:01 | 51.00029 | 6.07200 | 25347 ft | 453 kts | 208° |
| 2026-05-06 14:01 | 50.97305 | 6.04689 | 25708 ft | 455 kts | 211° |
| 2026-05-06 14:02 | 50.94634 | 6.02075 | 26055 ft | 457 kts | 210° |
| 2026-05-06 14:02 | 50.91864 | 5.99629 | 26386 ft | 459 kts | 208° |
| 2026-05-06 14:02 | 50.89015 | 5.97194 | 26703 ft | 460 kts | 208° |
| 2026-05-06 14:02 | 50.86216 | 5.94797 | 27047 ft | 461 kts | 208° |
| 2026-05-06 14:03 | 50.83390 | 5.92388 | 27511 ft | 458 kts | 207° |
| 2026-05-06 14:03 | 50.80575 | 5.89978 | 27989 ft | 456 kts | 208° |
| 2026-05-06 14:03 | 50.77817 | 5.87597 | 28406 ft | 454 kts | 208° |
| 2026-05-06 14:03 | 50.75076 | 5.85227 | 28818 ft | 453 kts | 207° |
| 2026-05-06 14:04 | 50.72323 | 5.82850 | 29278 ft | 450 kts | 207° |
| 2026-05-06 14:04 | 50.69588 | 5.80494 | 29711 ft | 449 kts | 207° |
| 2026-05-06 14:04 | 50.66844 | 5.78138 | 30105 ft | 447 kts | 207° |
| 2026-05-06 14:04 | 50.64065 | 5.75965 | 30457 ft | 446 kts | 202° |
| 2026-05-06 14:05 | 50.61182 | 5.74309 | 30804 ft | 445 kts | 195° |
| 2026-05-06 14:05 | 50.58200 | 5.73168 | 31166 ft | 442 kts | 189° |
| 2026-05-06 14:05 | 50.55170 | 5.72556 | 31496 ft | 440 kts | 183° |
| 2026-05-06 14:05 | 50.52099 | 5.72470 | 31807 ft | 438 kts | 177° |
| 2026-05-06 14:06 | 50.49118 | 5.72870 | 32084 ft | 437 kts | 173° |
| 2026-05-06 14:06 | 50.46087 | 5.73438 | 32341 ft | 436 kts | 173° |
| 2026-05-06 14:06 | 50.43092 | 5.74019 | 32583 ft | 436 kts | 173° |
| 2026-05-06 14:06 | 50.40098 | 5.74599 | 32829 ft | 436 kts | 173° |
| 2026-05-06 14:07 | 50.37100 | 5.75172 | 33059 ft | 436 kts | 173° |
| 2026-05-06 14:07 | 50.34071 | 5.75749 | 33244 ft | 435 kts | 173° |
| 2026-05-06 14:07 | 50.31069 | 5.76317 | 33404 ft | 435 kts | 174° |
| 2026-05-06 14:07 | 50.28077 | 5.76882 | 33553 ft | 436 kts | 174° |
| 2026-05-06 14:08 | 50.25067 | 5.77449 | 33710 ft | 436 kts | 174° |
| 2026-05-06 14:08 | 50.22088 | 5.78012 | 33864 ft | 436 kts | 174° |
| 2026-05-06 14:08 | 50.19086 | 5.78579 | 34009 ft | 436 kts | 174° |
| 2026-05-06 14:08 | 50.16091 | 5.79146 | 34137 ft | 437 kts | 174° |
| 2026-05-06 14:09 | 50.13069 | 5.79718 | 34255 ft | 438 kts | 173° |
| 2026-05-06 14:09 | 50.10032 | 5.80454 | 34364 ft | 439 kts | 170° |
| 2026-05-06 14:09 | 50.07090 | 5.81421 | 34479 ft | 440 kts | 167° |
| 2026-05-06 14:09 | 50.04129 | 5.82654 | 34585 ft | 441 kts | 164° |
| 2026-05-06 14:10 | 50.01190 | 5.84137 | 34704 ft | 442 kts | 162° |
| 2026-05-06 14:10 | 49.98287 | 5.85644 | 34805 ft | 442 kts | 163° |
| 2026-05-06 14:10 | 49.95399 | 5.87133 | 34910 ft | 443 kts | 163° |
| 2026-05-06 14:10 | 49.92479 | 5.88635 | 35015 ft | 443 kts | 163° |
| 2026-05-06 14:11 | 49.86912 | 5.91497 | 35212 ft | 444 kts | 163° |
| 2026-05-06 14:11 | 49.83969 | 5.93007 | 35322 ft | 444 kts | 163° |
| 2026-05-06 14:11 | 49.81038 | 5.94511 | 35422 ft | 444 kts | 163° |
| 2026-05-06 14:12 | 49.78143 | 5.95994 | 35528 ft | 444 kts | 163° |
| 2026-05-06 14:12 | 49.75200 | 5.97500 | 35620 ft | 444 kts | 163° |
| 2026-05-06 14:12 | 49.69368 | 6.00480 | 35774 ft | 445 kts | 163° |
| 2026-05-06 14:13 | 49.63506 | 6.03466 | 35802 ft | 446 kts | 163° |
| 2026-05-06 14:13 | 49.57633 | 6.06450 | 35807 ft | 445 kts | 163° |
| 2026-05-06 14:14 | 49.51840 | 6.09897 | 35810 ft | 446 kts | 157° |
| 2026-05-06 14:14 | 49.46365 | 6.14259 | 35813 ft | 447 kts | 151° |
| 2026-05-06 14:15 | 49.41180 | 6.19573 | 35810 ft | 449 kts | 145° |
| 2026-05-06 14:15 | 49.36322 | 6.25528 | 35811 ft | 449 kts | 143° |
| 2026-05-06 14:16 | 49.31469 | 6.31518 | 35811 ft | 449 kts | 143° |
| 2026-05-06 14:16 | 49.26595 | 6.37519 | 35807 ft | 449 kts | 143° |
| 2026-05-06 14:17 | 49.21756 | 6.43464 | 35815 ft | 448 kts | 143° |
| 2026-05-06 14:17 | 49.16882 | 6.49433 | 35813 ft | 448 kts | 143° |
| 2026-05-06 14:18 | 49.12048 | 6.55339 | 35811 ft | 448 kts | 143° |
| 2026-05-06 14:18 | 49.07206 | 6.61237 | 35809 ft | 448 kts | 143° |
| 2026-05-06 14:19 | 49.02047 | 6.66413 | 35811 ft | 443 kts | 156° |
| 2026-05-06 14:19 | 48.96283 | 6.69771 | 35805 ft | 440 kts | 168° |
| 2026-05-06 14:20 | 48.90302 | 6.71166 | 35814 ft | 437 kts | 179° |
| 2026-05-06 14:20 | 48.84314 | 6.71076 | 35806 ft | 435 kts | 183° |
| 2026-05-06 14:21 | 48.78272 | 6.70834 | 35801 ft | 435 kts | 183° |
| 2026-05-06 14:21 | 48.72271 | 6.70596 | 35804 ft | 435 kts | 183° |
| 2026-05-06 14:22 | 48.66253 | 6.70363 | 35809 ft | 434 kts | 183° |
| 2026-05-06 14:22 | 48.60206 | 6.70132 | 35814 ft | 434 kts | 183° |
| 2026-05-06 14:23 | 48.54207 | 6.69902 | 35821 ft | 433 kts | 183° |
| 2026-05-06 14:23 | 48.48188 | 6.69671 | 35810 ft | 433 kts | 183° |
| 2026-05-06 14:24 | 48.42160 | 6.69442 | 35812 ft | 433 kts | 183° |
| 2026-05-06 14:24 | 48.36159 | 6.69215 | 35820 ft | 432 kts | 183° |
| 2026-05-06 14:25 | 48.30194 | 6.68986 | 35818 ft | 432 kts | 183° |
| 2026-05-06 14:25 | 48.24191 | 6.68754 | 35820 ft | 431 kts | 183° |
| 2026-05-06 14:26 | 48.18210 | 6.68523 | 35810 ft | 431 kts | 183° |
| 2026-05-06 14:26 | 48.12228 | 6.68297 | 35824 ft | 426 kts | 183° |
| 2026-05-06 14:27 | 48.06347 | 6.68078 | 35810 ft | 422 kts | 183° |
| 2026-05-06 14:27 | 48.00515 | 6.67859 | 35822 ft | 421 kts | 183° |
| 2026-05-06 14:28 | 47.94635 | 6.67635 | 35836 ft | 426 kts | 183° |
| 2026-05-06 14:28 | 47.88797 | 6.67414 | 35845 ft | 430 kts | 183° |
| 2026-05-06 14:29 | 47.82819 | 6.67188 | 35839 ft | 430 kts | 183° |
| 2026-05-06 14:29 | 47.76852 | 6.66962 | 35843 ft | 431 kts | 183° |
| 2026-05-06 14:30 | 47.70884 | 6.66739 | 35845 ft | 430 kts | 183° |
| 2026-05-06 14:30 | 47.64912 | 6.66514 | 35851 ft | 429 kts | 184° |
| 2026-05-06 14:31 | 47.58938 | 6.66288 | 35856 ft | 430 kts | 183° |
| 2026-05-06 14:31 | 47.52973 | 6.66064 | 35858 ft | 430 kts | 184° |
| 2026-05-06 14:32 | 47.47037 | 6.65609 | 35864 ft | 429 kts | 189° |
| 2026-05-06 14:32 | 47.41260 | 6.63598 | 35859 ft | 427 kts | 200° |
| 2026-05-06 14:33 | 47.35879 | 6.59938 | 35859 ft | 427 kts | 211° |
| 2026-05-06 14:33 | 47.31093 | 6.54818 | 35862 ft | 429 kts | 219° |
| 2026-05-06 14:34 | 47.26570 | 6.49172 | 35864 ft | 429 kts | 220° |
| 2026-05-06 14:34 | 47.22051 | 6.43510 | 35860 ft | 429 kts | 220° |
| 2026-05-06 14:35 | 47.17505 | 6.37834 | 35860 ft | 430 kts | 220° |
| 2026-05-06 14:35 | 47.13049 | 6.32361 | 35863 ft | 430 kts | 216° |
| 2026-05-06 14:36 | 47.08006 | 6.27709 | 35859 ft | 430 kts | 206° |
| 2026-05-06 14:36 | 47.02467 | 6.24461 | 35862 ft | 431 kts | 197° |
| 2026-05-06 14:37 | 46.96589 | 6.22718 | 35855 ft | 433 kts | 187° |
| 2026-05-06 14:37 | 46.90597 | 6.21877 | 35862 ft | 433 kts | 186° |
| 2026-05-06 14:38 | 46.84609 | 6.21074 | 35862 ft | 433 kts | 186° |
| 2026-05-06 14:38 | 46.78601 | 6.20275 | 35858 ft | 433 kts | 187° |
| 2026-05-06 14:39 | 46.72629 | 6.19480 | 35859 ft | 432 kts | 187° |
| 2026-05-06 14:39 | 46.66677 | 6.18688 | 35718 ft | 431 kts | 187° |
| 2026-05-06 14:40 | 46.60648 | 6.17890 | 35838 ft | 434 kts | 187° |
| 2026-05-06 14:40 | 46.54657 | 6.17096 | 35854 ft | 434 kts | 187° |
| 2026-05-06 14:41 | 46.48626 | 6.16298 | 35860 ft | 435 kts | 187° |
| 2026-05-06 14:41 | 46.42590 | 6.15502 | 35865 ft | 435 kts | 187° |
| 2026-05-06 14:42 | 46.36572 | 6.14710 | 35883 ft | 434 kts | 187° |
| 2026-05-06 14:42 | 46.30572 | 6.13922 | 35889 ft | 434 kts | 187° |
| 2026-05-06 14:43 | 46.24588 | 6.13048 | 35894 ft | 432 kts | 190° |
| 2026-05-06 14:43 | 46.18626 | 6.11727 | 35886 ft | 432 kts | 191° |
| 2026-05-06 14:44 | 46.12699 | 6.10420 | 35890 ft | 432 kts | 191° |
| 2026-05-06 14:45 | 46.03795 | 6.08448 | 35885 ft | 432 kts | 191° |
| 2026-05-06 14:45 | 45.97832 | 6.07130 | 35897 ft | 432 kts | 191° |
| 2026-05-06 14:46 | 45.91938 | 6.05826 | 35883 ft | 431 kts | 191° |
| 2026-05-06 14:46 | 45.86098 | 6.04538 | 35876 ft | 432 kts | 191° |
| 2026-05-06 14:47 | 45.80152 | 6.03230 | 35876 ft | 431 kts | 191° |
| 2026-05-06 14:47 | 45.74255 | 6.01929 | 35874 ft | 430 kts | 191° |
| 2026-05-06 14:48 | 45.68341 | 6.00626 | 35860 ft | 431 kts | 191° |
| 2026-05-06 14:48 | 45.62424 | 5.99322 | 35867 ft | 431 kts | 191° |
| 2026-05-06 14:49 | 45.56497 | 5.98018 | 35863 ft | 431 kts | 191° |
| 2026-05-06 14:49 | 45.50561 | 5.96718 | 35871 ft | 431 kts | 191° |
| 2026-05-06 14:50 | 45.44719 | 5.95144 | 35870 ft | 428 kts | 195° |
| 2026-05-06 14:50 | 45.38892 | 5.93328 | 35866 ft | 427 kts | 195° |
| 2026-05-06 14:51 | 45.33129 | 5.91545 | 35876 ft | 426 kts | 195° |
| 2026-05-06 14:51 | 45.27309 | 5.89734 | 35874 ft | 427 kts | 195° |
| 2026-05-06 14:52 | 45.21510 | 5.87934 | 35868 ft | 427 kts | 195° |
| 2026-05-06 14:52 | 45.15755 | 5.86150 | 35872 ft | 426 kts | 195° |
| 2026-05-06 14:53 | 45.09955 | 5.84354 | 35877 ft | 425 kts | 195° |
| 2026-05-06 14:53 | 45.04194 | 5.82573 | 35885 ft | 427 kts | 195° |
| 2026-05-06 14:54 | 44.98373 | 5.80780 | 35897 ft | 426 kts | 195° |
| 2026-05-06 14:54 | 44.92584 | 5.79000 | 35900 ft | 425 kts | 195° |
| 2026-05-06 14:55 | 44.86939 | 5.77267 | 35911 ft | 425 kts | 195° |
| 2026-05-06 14:55 | 44.81157 | 5.75495 | 35907 ft | 424 kts | 196° |
| 2026-05-06 14:56 | 44.75396 | 5.73732 | 35904 ft | 424 kts | 196° |
| 2026-05-06 14:56 | 44.69666 | 5.71981 | 35897 ft | 423 kts | 195° |
| 2026-05-06 14:57 | 44.63904 | 5.70226 | 35895 ft | 423 kts | 196° |
| 2026-05-06 14:57 | 44.58165 | 5.68479 | 35899 ft | 423 kts | 195° |
| 2026-05-06 14:58 | 44.52423 | 5.66735 | 35891 ft | 424 kts | 196° |
| 2026-05-06 14:58 | 44.46692 | 5.64998 | 35884 ft | 423 kts | 196° |
| 2026-05-06 14:59 | 44.40914 | 5.63212 | 35884 ft | 423 kts | 198° |
| 2026-05-06 14:59 | 44.35343 | 5.60867 | 35878 ft | 420 kts | 203° |
| 2026-05-06 15:00 | 44.29879 | 5.57912 | 35884 ft | 418 kts | 204° |
| 2026-05-06 15:00 | 44.24486 | 5.54974 | 35880 ft | 418 kts | 205° |
| 2026-05-06 15:01 | 44.19086 | 5.52030 | 35881 ft | 417 kts | 205° |
| 2026-05-06 15:01 | 44.13670 | 5.49078 | 35870 ft | 417 kts | 205° |
| 2026-05-06 15:02 | 44.08274 | 5.46137 | 35875 ft | 417 kts | 205° |
| 2026-05-06 15:02 | 44.02957 | 5.43247 | 35877 ft | 417 kts | 205° |
| 2026-05-06 15:03 | 43.97568 | 5.40324 | 35883 ft | 417 kts | 205° |
| 2026-05-06 15:03 | 43.92172 | 5.37410 | 35901 ft | 415 kts | 205° |
| 2026-05-06 15:04 | 43.87149 | 5.34700 | 35891 ft | 416 kts | 205° |
| 2026-05-06 15:04 | 43.81739 | 5.31782 | 35904 ft | 416 kts | 205° |
| 2026-05-06 15:05 | 43.76334 | 5.28869 | 35889 ft | 416 kts | 205° |
| 2026-05-06 15:05 | 43.70955 | 5.25977 | 35886 ft | 416 kts | 204° |
| 2026-05-06 15:06 | 43.65561 | 5.23082 | 35891 ft | 416 kts | 204° |
| 2026-05-06 15:06 | 43.60170 | 5.20195 | 35906 ft | 414 kts | 205° |
| 2026-05-06 15:07 | 43.54810 | 5.17326 | 35895 ft | 415 kts | 205° |
| 2026-05-06 15:07 | 43.49440 | 5.14460 | 35899 ft | 414 kts | 205° |
| 2026-05-06 15:08 | 43.44094 | 5.11600 | 35887 ft | 414 kts | 206° |
| 2026-05-06 15:08 | 43.38904 | 5.08285 | 35895 ft | 411 kts | 211° |
| 2026-05-06 15:09 | 43.34002 | 5.04317 | 35899 ft | 409 kts | 216° |
| 2026-05-06 15:09 | 43.29315 | 4.99920 | 35890 ft | 409 kts | 217° |
| 2026-05-06 15:10 | 43.24604 | 4.95507 | 35887 ft | 410 kts | 217° |
| 2026-05-06 15:10 | 43.19926 | 4.91118 | 35894 ft | 410 kts | 217° |
| 2026-05-06 15:11 | 43.15202 | 4.86687 | 35899 ft | 409 kts | 217° |
| 2026-05-06 15:11 | 43.10493 | 4.82277 | 35898 ft | 410 kts | 217° |
| 2026-05-06 15:12 | 43.05764 | 4.77958 | 35897 ft | 410 kts | 214° |
| 2026-05-06 15:12 | 43.00812 | 4.74115 | 35900 ft | 410 kts | 212° |
| 2026-05-06 15:13 | 42.95840 | 4.70334 | 35888 ft | 410 kts | 212° |
| 2026-05-06 15:13 | 42.90826 | 4.66531 | 35895 ft | 410 kts | 212° |
| 2026-05-06 15:14 | 42.86007 | 4.62887 | 35892 ft | 410 kts | 213° |
| 2026-05-06 15:14 | 42.81015 | 4.59118 | 35888 ft | 411 kts | 213° |
| 2026-05-06 15:15 | 42.76020 | 4.55358 | 35898 ft | 410 kts | 213° |
| 2026-05-06 15:15 | 42.71046 | 4.51617 | 35900 ft | 410 kts | 212° |
| 2026-05-06 15:16 | 42.66058 | 4.47877 | 35897 ft | 410 kts | 213° |
| 2026-05-06 15:16 | 42.61039 | 4.44116 | 35896 ft | 409 kts | 212° |
| 2026-05-06 15:17 | 42.56076 | 4.40407 | 35907 ft | 408 kts | 213° |
| 2026-05-06 15:17 | 42.51100 | 4.36696 | 35902 ft | 408 kts | 213° |
| 2026-05-06 15:18 | 42.46111 | 4.32980 | 35903 ft | 409 kts | 212° |
| 2026-05-06 15:18 | 42.41157 | 4.29296 | 35911 ft | 408 kts | 212° |
| 2026-05-06 15:19 | 42.36188 | 4.25607 | 35912 ft | 408 kts | 212° |
| 2026-05-06 15:19 | 42.31218 | 4.21924 | 35910 ft | 408 kts | 212° |
| 2026-05-06 15:20 | 42.26257 | 4.18252 | 35909 ft | 408 kts | 212° |
| 2026-05-06 15:20 | 42.21263 | 4.14564 | 35907 ft | 408 kts | 212° |
| 2026-05-06 15:21 | 42.16311 | 4.10915 | 35914 ft | 408 kts | 212° |
| 2026-05-06 15:21 | 42.11338 | 4.07262 | 35907 ft | 407 kts | 212° |
| 2026-05-06 15:22 | 42.06373 | 4.03618 | 35923 ft | 406 kts | 212° |
| 2026-05-06 15:22 | 42.01444 | 4.00008 | 35919 ft | 405 kts | 212° |
| 2026-05-06 15:23 | 41.96375 | 3.96645 | 35933 ft | 408 kts | 208° |
| 2026-05-06 15:23 | 41.91026 | 3.93935 | 35918 ft | 412 kts | 203° |
| 2026-05-06 15:24 | 41.85515 | 3.91936 | 35915 ft | 416 kts | 198° |
| 2026-05-06 15:24 | 41.79806 | 3.90540 | 35935 ft | 418 kts | 196° |
| 2026-05-06 15:25 | 41.74066 | 3.89182 | 35932 ft | 418 kts | 196° |
| 2026-05-06 15:25 | 41.68344 | 3.87845 | 35929 ft | 418 kts | 196° |
| 2026-05-06 15:26 | 41.62627 | 3.86525 | 35930 ft | 417 kts | 195° |
| 2026-05-06 15:26 | 41.56924 | 3.85217 | 35922 ft | 417 kts | 196° |
| 2026-05-06 15:27 | 41.51208 | 3.83910 | 35941 ft | 417 kts | 195° |
| 2026-05-06 15:27 | 41.45503 | 3.82606 | 35939 ft | 417 kts | 196° |
| 2026-05-06 15:28 | 41.39809 | 3.81302 | 35923 ft | 417 kts | 196° |
| 2026-05-06 15:28 | 41.34081 | 3.79993 | 35958 ft | 417 kts | 196° |
| 2026-05-06 15:29 | 41.28408 | 3.78695 | 35940 ft | 416 kts | 196° |
| 2026-05-06 15:29 | 41.22709 | 3.77399 | 35933 ft | 416 kts | 196° |
| 2026-05-06 15:30 | 41.17038 | 3.75907 | 35938 ft | 413 kts | 200° |
| 2026-05-06 15:30 | 41.11554 | 3.73736 | 35936 ft | 409 kts | 205° |
| 2026-05-06 15:31 | 41.06272 | 3.71052 | 35953 ft | 408 kts | 207° |
| 2026-05-06 15:31 | 41.01000 | 3.68352 | 35938 ft | 407 kts | 207° |
| 2026-05-06 15:32 | 40.93092 | 3.64298 | 35937 ft | 407 kts | 207° |
| 2026-05-06 15:32 | 40.87878 | 3.61625 | 35931 ft | 407 kts | 207° |
| 2026-05-06 15:33 | 40.82606 | 3.58924 | 35931 ft | 408 kts | 207° |
| 2026-05-06 15:33 | 40.77320 | 3.56222 | 35923 ft | 408 kts | 207° |
| 2026-05-06 15:34 | 40.72016 | 3.53515 | 35926 ft | 408 kts | 207° |
| 2026-05-06 15:34 | 40.66750 | 3.50829 | 35845 ft | 409 kts | 207° |
| 2026-05-06 15:35 | 40.64093 | 3.49478 | 35631 ft | 407 kts | 207° |
| 2026-05-06 15:35 | 40.61486 | 3.48152 | 35420 ft | 405 kts | 207° |
| 2026-05-06 15:35 | 40.58841 | 3.46808 | 35207 ft | 403 kts | 207° |
| 2026-05-06 15:35 | 40.56245 | 3.45491 | 34913 ft | 401 kts | 207° |
| 2026-05-06 15:36 | 40.53652 | 3.44177 | 34449 ft | 399 kts | 207° |
| 2026-05-06 15:36 | 40.51045 | 3.42958 | 33782 ft | 401 kts | 204° |
| 2026-05-06 15:36 | 40.48389 | 3.41937 | 33093 ft | 403 kts | 201° |
| 2026-05-06 15:36 | 40.45631 | 3.41095 | 32353 ft | 406 kts | 198° |
| 2026-05-06 15:37 | 40.42851 | 3.40466 | 31591 ft | 410 kts | 195° |
| 2026-05-06 15:37 | 40.40035 | 3.40046 | 30834 ft | 414 kts | 191° |
| 2026-05-06 15:37 | 40.37141 | 3.39838 | 30046 ft | 418 kts | 188° |
| 2026-05-06 15:37 | 40.34239 | 3.39857 | 29230 ft | 423 kts | 185° |
| 2026-05-06 15:38 | 40.31287 | 3.40014 | 28372 ft | 427 kts | 184° |
| 2026-05-06 15:38 | 40.28332 | 3.40170 | 27498 ft | 430 kts | 184° |
| 2026-05-06 15:38 | 40.25344 | 3.40330 | 26603 ft | 432 kts | 184° |
| 2026-05-06 15:38 | 40.22357 | 3.40496 | 25947 ft | 429 kts | 183° |
| 2026-05-06 15:39 | 40.19381 | 3.40665 | 25400 ft | 425 kts | 183° |
| 2026-05-06 15:39 | 40.16444 | 3.40831 | 24842 ft | 421 kts | 183° |
| 2026-05-06 15:39 | 40.13531 | 3.40995 | 24277 ft | 417 kts | 183° |
| 2026-05-06 15:39 | 40.10664 | 3.41155 | 23724 ft | 414 kts | 183° |
| 2026-05-06 15:40 | 40.07779 | 3.41319 | 23028 ft | 413 kts | 183° |
| 2026-05-06 15:40 | 40.04916 | 3.41479 | 22181 ft | 415 kts | 182° |
| 2026-05-06 15:40 | 40.02047 | 3.41641 | 21494 ft | 414 kts | 182° |
| 2026-05-06 15:40 | 39.99198 | 3.41803 | 20881 ft | 410 kts | 182° |
| 2026-05-06 15:41 | 39.96365 | 3.41964 | 20238 ft | 407 kts | 182° |
| 2026-05-06 15:41 | 39.93523 | 3.42124 | 19596 ft | 404 kts | 182° |
| 2026-05-06 15:41 | 39.90739 | 3.42280 | 18957 ft | 402 kts | 182° |
| 2026-05-06 15:41 | 39.87962 | 3.42435 | 18311 ft | 399 kts | 182° |
| 2026-05-06 15:42 | 39.85219 | 3.42587 | 17702 ft | 397 kts | 182° |
| 2026-05-06 15:42 | 39.82457 | 3.42742 | 17094 ft | 394 kts | 181° |
| 2026-05-06 15:42 | 39.79734 | 3.42893 | 16487 ft | 391 kts | 181° |
| 2026-05-06 15:42 | 39.77040 | 3.43043 | 15909 ft | 387 kts | 181° |
| 2026-05-06 15:43 | 39.74365 | 3.43174 | 15325 ft | 384 kts | 184° |
| 2026-05-06 15:43 | 39.71778 | 3.42668 | 14698 ft | 375 kts | 201° |
| 2026-05-06 15:43 | 39.69501 | 3.41187 | 14123 ft | 367 kts | 218° |
| 2026-05-06 15:43 | 39.67708 | 3.38879 | 13534 ft | 361 kts | 235° |
| 2026-05-06 15:44 | 39.66494 | 3.36081 | 12952 ft | 358 kts | 244° |
| 2026-05-06 15:44 | 39.65376 | 3.33130 | 12328 ft | 357 kts | 244° |
| 2026-05-06 15:44 | 39.64288 | 3.30242 | 11707 ft | 356 kts | 244° |
| 2026-05-06 15:44 | 39.63204 | 3.27368 | 11111 ft | 355 kts | 244° |
| 2026-05-06 15:45 | 39.62127 | 3.24521 | 10520 ft | 354 kts | 244° |
| 2026-05-06 15:45 | 39.61047 | 3.21671 | 10064 ft | 350 kts | 244° |
| 2026-05-06 15:45 | 39.59975 | 3.18847 | 9912 ft | 345 kts | 244° |
| 2026-05-06 15:45 | 39.58944 | 3.16139 | 9910 ft | 326 kts | 244° |
| 2026-05-06 15:46 | 39.57967 | 3.13572 | 9804 ft | 313 kts | 245° |
| 2026-05-06 15:46 | 39.57016 | 3.11073 | 9608 ft | 302 kts | 245° |
| 2026-05-06 15:46 | 39.56105 | 3.08683 | 9428 ft | 292 kts | 245° |
| 2026-05-06 15:46 | 39.55225 | 3.06377 | 9248 ft | 283 kts | 245° |
| 2026-05-06 15:47 | 39.54361 | 3.04115 | 8980 ft | 277 kts | 245° |
| 2026-05-06 15:47 | 39.53516 | 3.01898 | 8593 ft | 277 kts | 245° |
| 2026-05-06 15:47 | 39.52663 | 2.99666 | 8211 ft | 277 kts | 245° |
| 2026-05-06 15:47 | 39.51808 | 2.97432 | 7840 ft | 275 kts | 245° |
| 2026-05-06 15:48 | 39.50965 | 2.95230 | 7442 ft | 274 kts | 245° |
| 2026-05-06 15:48 | 39.50114 | 2.93011 | 7053 ft | 273 kts | 245° |
| 2026-05-06 15:48 | 39.49273 | 2.90820 | 6691 ft | 272 kts | 245° |
| 2026-05-06 15:48 | 39.48430 | 2.88626 | 6296 ft | 272 kts | 245° |
| 2026-05-06 15:49 | 39.47597 | 2.86453 | 6021 ft | 271 kts | 245° |
| 2026-05-06 15:49 | 39.46748 | 2.84240 | 6004 ft | 274 kts | 245° |
| 2026-05-06 15:49 | 39.45896 | 2.82027 | 6001 ft | 276 kts | 245° |
| 2026-05-06 15:49 | 39.45041 | 2.79815 | 6003 ft | 277 kts | 244° |
| 2026-05-06 15:50 | 39.44133 | 2.77633 | 5999 ft | 277 kts | 242° |
| 2026-05-06 15:50 | 39.43200 | 2.75456 | 5995 ft | 275 kts | 242° |
| 2026-05-06 15:50 | 39.42284 | 2.73324 | 5788 ft | 272 kts | 242° |
| 2026-05-06 15:50 | 39.41359 | 2.71164 | 5354 ft | 274 kts | 242° |
| 2026-05-06 15:51 | 39.40440 | 2.69000 | 4986 ft | 274 kts | 242° |
| 2026-05-06 15:51 | 39.39536 | 2.66863 | 4642 ft | 272 kts | 242° |
| 2026-05-06 15:51 | 39.38628 | 2.64714 | 4295 ft | 271 kts | 242° |
| 2026-05-06 15:51 | 39.37742 | 2.62606 | 4031 ft | 267 kts | 243° |
| 2026-05-06 15:52 | 39.37144 | 2.60406 | 3978 ft | 251 kts | 264° |
| 2026-05-06 15:52 | 39.37056 | 2.58249 | 3992 ft | 235 kts | 271° |
| 2026-05-06 15:52 | 39.37059 | 2.56208 | 3991 ft | 221 kts | 272° |
| 2026-05-06 15:52 | 39.37075 | 2.54229 | 3992 ft | 217 kts | 272° |
| 2026-05-06 15:53 | 39.37215 | 2.52319 | 3981 ft | 215 kts | 292° |
| 2026-05-06 15:53 | 39.38029 | 2.50780 | 3832 ft | 207 kts | 326° |
| 2026-05-06 15:53 | 39.39348 | 2.50131 | 3484 ft | 206 kts | 0° |
| 2026-05-06 15:53 | 39.40781 | 2.50262 | 3185 ft | 205 kts | 10° |
| 2026-05-06 15:54 | 39.42184 | 2.50560 | 3003 ft | 202 kts | 12° |
| 2026-05-06 15:54 | 39.43567 | 2.50886 | 3002 ft | 204 kts | 13° |
| 2026-05-06 15:54 | 39.44887 | 2.51575 | 2987 ft | 203 kts | 37° |
| 2026-05-06 15:54 | 39.45918 | 2.52807 | 3000 ft | 202 kts | 51° |
| 2026-05-06 15:55 | 39.46754 | 2.54262 | 2914 ft | 202 kts | 56° |
| 2026-05-06 15:55 | 39.47511 | 2.55770 | 2672 ft | 200 kts | 58° |
| 2026-05-06 15:55 | 39.48237 | 2.57304 | 2409 ft | 198 kts | 59° |
| 2026-05-06 15:55 | 39.48929 | 2.58788 | 2238 ft | 187 kts | 59° |
| 2026-05-06 15:56 | 39.49589 | 2.60201 | 1964 ft | 177 kts | 59° |
| 2026-05-06 15:56 | 39.50205 | 2.61510 | 1707 ft | 168 kts | 59° |
| 2026-05-06 15:56 | 39.50796 | 2.62768 | 1470 ft | 159 kts | 59° |
| 2026-05-06 15:56 | 39.51359 | 2.63963 | 1252 ft | 148 kts | 59° |
| 2026-05-06 15:57 | 39.51878 | 2.65066 | 1101 ft | 140 kts | 58° |
| 2026-05-06 15:57 | 39.52374 | 2.66116 | 914 ft | 132 kts | 58° |
| 2026-05-06 15:57 | 39.52856 | 2.67117 | 751 ft | 131 kts | 57° |
| 2026-05-06 15:57 | 39.53325 | 2.68128 | 579 ft | 131 kts | 59° |
| 2026-05-06 15:58 | 39.53807 | 2.69145 | 411 ft | 131 kts | 58° |
| 2026-05-06 15:58 | 39.54283 | 2.70157 | 230 ft | 130 kts | 58° |
| 2026-05-06 15:58 | 39.54761 | 2.71170 | 73 ft | 130 kts | 57° |
| 2026-05-06 15:58 | 39.55223 | 2.72135 | 40 ft | 108 kts | 57° |
| 2026-05-06 15:59 | 39.55539 | 2.72803 | 41 ft | 68 kts | 59° |
| 2026-05-06 15:59 | 39.55703 | 2.73179 | 41 ft | 32 kts | 70° |
| 2026-05-06 15:59 | 39.55714 | 2.73405 | 41 ft | 18 kts | 105° |
| 2026-05-06 15:59 | 39.55682 | 2.73444 | 41 ft | 0 kts | 148° |
| 2026-05-06 16:01 | 39.55638 | 2.73480 | 41 ft | 15 kts | 148° |
| 2026-05-06 16:01 | 39.55535 | 2.73564 | 41 ft | 8 kts | 156° |
| 2026-05-06 16:01 | 39.55484 | 2.73537 | 40 ft | 10 kts | 232° |
| 2026-05-06 16:02 | 39.55439 | 2.73453 | 40 ft | 11 kts | 208° |
| 2026-05-06 16:02 | 39.55359 | 2.73487 | 40 ft | 13 kts | 149° |
| 2026-05-06 16:02 | 39.55278 | 2.73551 | 40 ft | 14 kts | 148° |
| 2026-05-06 16:02 | 39.55194 | 2.73620 | 40 ft | 14 kts | 149° |
| 2026-05-06 16:03 | 39.55120 | 2.73570 | 40 ft | 14 kts | 242° |
| 2026-05-06 16:03 | 39.55079 | 2.73525 | 40 ft | 6 kts | 175° |
| 2026-05-06 16:03 | 39.55060 | 2.73530 | 40 ft | 1 kts | 165° |
| 2026-05-06 16:03 | 39.55049 | 2.73534 | 40 ft | 0 kts | 165° |